Seer Green, United Kingdom
Current Conditions -  °F | °C
As of 7:50 PM on Monday 24 Nov 2014 (Local Time) from EGWU Reporting Station
Light Fog Light Fog  
Wind Chill: 34°   Ceiling: Unl
Heat Index: 34°   Visibility: 2.8mi
Dew Point: 34°   Wind: 2mph
Humidity: 100%   Direction: 320°NW
Pressure: 30.33"   Gusts: NA
Location:  51.62°N, 0.61°W
Report Text: EGWU 241950Z 32002KT 4500 MIFG FEW250 01/01 Q1027 GRN TEMPO 0500 FG RED
Loading
Personal Weather Stations






























Interactive Weather Map New forecast layout! Learn more

10-Day Weather Forecast

Advertisements
Track Severe Weather on mobile